Time;durP1;ratioP1;P1;durP2;ratioP2;P2;SDS_P1;SDS_P2;PMS_P1;PMS_P2;Temp;Humidity;BMP_temperature;BMP_pressure;BME280_temperature;BME280_humidity;BME280_pressure;Samples;Min_cycle;Max_cycle;Signal;HPM_P1;HPM_P2
2022/09/09 00:01:36;;;;;;;55.10;37.20;;;;;;;18.40;61.08;98580.30;105924;1277;100050;-65
2022/09/09 00:04:27;;;;;;;53.10;35.60;;;;;;;18.37;61.18;98576.80;106065;1277;97054;-61
2022/09/09 00:07:04;;;;;;;53.10;36.20;;;;;;;18.34;61.40;98577.94;105965;1276;112781;-64
2022/09/09 00:09:45;;;;;;;54.40;36.10;;;;;;;18.31;61.31;98576.41;105990;1277;99358;-64
2022/09/09 00:12:33;;;;;;;56.90;38.00;;;;;;;18.29;61.26;98579.88;105926;1276;109042;-64
2022/09/09 00:15:19;;;;;;;57.00;37.10;;;;;;;18.26;61.63;98585.60;105945;1276;99318;-64
2022/09/09 00:17:55;;;;;;;54.70;38.40;;;;;;;18.24;61.49;98582.77;106044;1276;96583;-63
2022/09/09 00:20:25;;;;;;;50.90;35.80;;;;;;;18.22;61.74;98587.05;106061;1276;113534;-62
2022/09/09 00:23:10;;;;;;;54.60;37.50;;;;;;;18.20;61.66;98587.36;105962;1276;99351;-63
2022/09/09 00:26:04;;;;;;;53.90;37.10;;;;;;;18.17;61.86;98588.71;105954;1277;108410;-65
2022/09/09 00:28:39;;;;;;;53.90;37.40;;;;;;;18.15;61.76;98594.68;105851;1277;99397;-66
2022/09/09 00:31:20;;;;;;;55.10;36.80;;;;;;;18.12;62.04;98595.34;105899;1277;99262;-64
2022/09/09 00:33:50;;;;;;;55.50;36.90;;;;;;;18.10;61.99;98595.11;105926;1276;112794;-62
2022/09/09 00:36:23;;;;;;;58.60;39.50;;;;;;;18.09;62.21;98591.64;105966;1276;99171;-64
2022/09/09 00:38:57;;;;;;;56.10;37.20;;;;;;;18.09;62.12;98595.52;105915;1276;107212;-64
2022/09/09 00:42:09;;;;;;;56.80;38.00;;;;;;;18.09;62.28;98591.44;105978;1277;99349;-64
2022/09/09 00:44:39;;;;;;;55.70;39.30;;;;;;;18.09;62.39;98589.83;105939;1277;99362;-66
2022/09/09 00:47:39;;;;;;;53.60;38.40;;;;;;;18.08;62.39;98591.88;105984;1276;113394;-65
2022/09/09 00:50:25;;;;;;;56.90;38.70;;;;;;;18.07;62.48;98590.16;105923;1276;96739;-65
2022/09/09 00:53:00;;;;;;;57.50;39.50;;;;;;;18.06;62.61;98590.73;105853;1277;108410;-63
2022/09/09 00:55:48;;;;;;;54.60;38.00;;;;;;;18.03;62.58;98585.64;105952;1276;99220;-63
2022/09/09 00:58:16;;;;;;;54.30;38.70;;;;;;;18.02;62.81;98583.78;106102;1277;99319;-63
2022/09/09 01:00:49;;;;;;;56.70;39.30;;;;;;;18.00;62.57;98581.50;105920;1277;113469;-65
2022/09/09 01:03:40;;;;;;;55.90;39.60;;;;;;;17.97;62.72;98584.30;106022;1276;99242;-63
2022/09/09 01:06:39;;;;;;;56.80;39.10;;;;;;;17.95;62.91;98588.13;106048;1277;107416;-64
2022/09/09 01:09:16;;;;;;;58.30;39.90;;;;;;;17.93;63.04;98599.06;105916;1276;99321;-63
2022/09/09 01:12:17;;;;;;;54.30;40.60;;;;;;;17.92;62.99;98598.27;106003;1276;96992;-63
2022/09/09 01:14:51;;;;;;;58.60;40.20;;;;;;;17.91;63.01;98594.67;105886;1277;113325;-65
2022/09/09 01:17:46;;;;;;;66.40;42.50;;;;;;;17.90;63.11;98597.46;106010;1276;99201;-64
2022/09/09 01:20:27;;;;;;;58.90;40.30;;;;;;;17.87;63.20;98595.29;105949;1276;108732;-64
2022/09/09 01:23:10;;;;;;;57.10;38.90;;;;;;;17.84;63.17;98600.46;105971;1277;99381;-65
2022/09/09 01:26:18;;;;;;;59.90;39.90;;;;;;;17.83;63.20;98601.98;105994;1276;99216;-64
2022/09/09 01:28:49;;;;;;;60.60;40.90;;;;;;;17.79;63.36;98604.90;106046;1276;113494;-66
2022/09/09 01:31:22;;;;;;;58.00;40.30;;;;;;;17.78;63.48;98600.36;106054;1277;99229;-66
2022/09/09 01:33:50;;;;;;;62.40;42.30;;;;;;;17.76;63.00;98600.77;105969;1277;107726;-64
2022/09/09 01:36:35;;;;;;;54.50;40.20;;;;;;;17.70;63.27;98604.31;105952;1276;99119;-66
2022/09/09 01:39:03;;;;;;;55.40;38.20;;;;;;;17.68;63.58;98597.19;106042;1276;99419;-67
2022/09/09 01:41:32;;;;;;;60.70;41.60;;;;;;;17.68;63.48;98602.57;105943;1276;113513;-66
2022/09/09 01:44:00;;;;;;;58.40;40.20;;;;;;;17.66;63.37;98605.25;105867;1277;99305;-69
2022/09/09 01:46:29;;;;;;;54.70;38.90;;;;;;;17.64;63.50;98609.83;106047;1277;108434;-65
2022/09/09 01:49:02;;;;;;;59.70;40.70;;;;;;;17.63;63.51;98615.80;106040;1276;99892;-66
2022/09/09 01:51:31;;;;;;;59.10;41.60;;;;;;;17.63;63.77;98614.23;106032;1277;99358;-68
2022/09/09 01:53:59;;;;;;;59.90;39.40;;;;;;;17.63;63.84;98610.83;106024;1277;112791;-68
2022/09/09 01:56:42;;;;;;;57.30;40.50;;;;;;;17.62;63.89;98614.30;106119;1277;99382;-64
2022/09/09 01:59:19;;;;;;;55.40;39.20;;;;;;;17.61;63.81;98614.89;105919;1276;108834;-65
2022/09/09 02:02:08;;;;;;;55.60;38.90;;;;;;;17.61;64.02;98614.09;105947;1276;96597;-66
2022/09/09 02:05:03;;;;;;;56.50;40.00;;;;;;;17.61;64.07;98608.88;105970;1276;99317;-68
2022/09/09 02:07:40;;;;;;;54.50;38.20;;;;;;;17.61;64.25;98610.26;105970;1277;113007;-60
2022/09/09 02:10:47;;;;;;;54.20;39.60;;;;;;;17.62;64.17;98605.93;106022;1276;96720;-64
2022/09/09 02:13:18;;;;;;;54.90;37.10;;;;;;;17.61;64.26;98604.52;105926;1277;108408;-63
2022/09/09 02:15:56;;;;;;;51.70;36.50;;;;;;;17.62;64.22;98606.27;105976;1276;99340;-65
2022/09/09 02:19:25;;;;;;;55.70;37.30;;;;;;;17.62;64.35;98610.33;106015;1276;99274;-65
2022/09/09 02:21:57;;;;;;;50.30;34.50;;;;;;;17.62;64.29;98602.50;105879;1277;113410;-63
2022/09/09 02:24:27;;;;;;;48.40;34.30;;;;;;;17.61;64.43;98604.02;106014;1276;99226;-66
2022/09/09 02:26:58;;;;;;;48.20;34.60;;;;;;;17.59;64.47;98599.53;105957;1276;108460;-65
2022/09/09 02:29:41;;;;;;;51.00;34.00;;;;;;;17.58;64.35;98597.81;105955;1277;99305;-65
2022/09/09 02:32:15;;;;;;;49.20;34.30;;;;;;;17.58;64.58;98599.70;105890;1276;99308;-66
2022/09/09 02:34:48;;;;;;;49.60;33.20;;;;;;;17.58;64.59;98598.13;105880;1276;112607;-66
2022/09/09 02:37:20;;;;;;;47.40;33.50;;;;;;;17.57;64.65;98599.58;105960;1277;96636;-67
2022/09/09 02:39:48;;;;;;;47.20;33.80;;;;;;;17.57;64.59;98603.23;106071;1277;107857;-64
2022/09/09 02:42:16;;;;;;;50.00;34.20;;;;;;;17.57;64.55;98611.06;106019;1277;99287;-64
2022/09/09 02:44:45;;;;;;;46.10;33.30;;;;;;;17.57;64.73;98610.20;105984;1276;99208;-64
2022/09/09 02:47:39;;;;;;;48.20;32.60;;;;;;;17.56;64.79;98610.56;105885;1276;113370;-62
2022/09/09 02:50:36;;;;;;;50.50;33.70;;;;;;;17.56;64.87;98608.42;105934;1276;96861;-65
2022/09/09 02:53:20;;;;;;;47.60;32.40;;;;;;;17.55;64.79;98610.55;105586;1279;108400;-64
2022/09/09 02:56:13;;;;;;;47.20;32.70;;;;;;;17.55;64.87;98614.36;105955;1277;96639;-66
2022/09/09 02:58:42;;;;;;;48.90;32.60;;;;;;;17.54;65.05;98620.70;106032;1276;99297;-65
2022/09/09 03:01:10;;;;;;;47.60;32.10;;;;;;;17.54;64.98;98614.90;106050;1276;113496;-64
2022/09/09 03:03:42;;;;;;;46.60;32.20;;;;;;;17.55;64.95;98617.73;106022;1276;96737;-64
2022/09/09 03:06:11;;;;;;;50.60;34.40;;;;;;;17.55;65.09;98616.31;106037;1276;107724;-65
2022/09/09 03:08:40;;;;;;;47.10;33.10;;;;;;;17.55;65.05;98621.85;106145;1277;99301;-62
2022/09/09 03:11:17;;;;;;;47.40;32.70;;;;;;;17.54;65.12;98626.05;105977;1276;99339;-64
2022/09/09 03:13:45;;;;;;;49.20;33.40;;;;;;;17.54;65.19;98628.03;105947;1276;113598;-65
2022/09/09 03:16:12;;;;;;;48.30;31.50;;;;;;;17.53;65.17;98624.55;106000;1276;99076;-65
2022/09/09 03:18:40;;;;;;;48.80;31.20;;;;;;;17.53;65.10;98623.53;105904;1276;108220;-67
2022/09/09 03:21:08;;;;;;;46.50;32.30;;;;;;;17.52;65.32;98620.54;105777;1276;99320;-66
2022/09/09 03:23:35;;;;;;;44.50;32.30;;;;;;;17.52;65.24;98616.31;105784;1279;99226;-66
2022/09/09 03:26:03;;;;;;;48.30;32.30;;;;;;;17.51;65.33;98624.25;106028;1277;113426;-66
2022/09/09 03:28:32;;;;;;;50.40;34.10;;;;;;;17.49;65.28;98619.09;106034;1277;98045;-66
2022/09/09 03:31:02;;;;;;;49.00;33.20;;;;;;;17.46;65.48;98620.73;105970;1276;108792;-67
2022/09/09 03:33:31;;;;;;;48.90;33.00;;;;;;;17.44;65.33;98621.28;105989;1276;99320;-63
2022/09/09 03:35:59;;;;;;;46.10;31.00;;;;;;;17.41;65.24;98618.52;105995;1277;96669;-63
2022/09/09 03:38:26;;;;;;;47.30;32.80;;;;;;;17.33;65.19;98621.77;105924;1276;113387;-64
2022/09/09 03:40:57;;;;;;;47.30;32.60;;;;;;;17.26;65.34;98625.48;105934;1277;99345;-65
2022/09/09 03:43:26;;;;;;;45.10;32.10;;;;;;;17.25;65.56;98624.30;105911;1279;107782;-66
2022/09/09 03:45:57;;;;;;;45.70;31.70;;;;;;;17.27;65.43;98623.11;105926;1277;99970;-64
2022/09/09 03:48:27;;;;;;;46.20;33.00;;;;;;;17.27;65.72;98624.90;105900;1276;99129;-63
2022/09/09 03:50:57;;;;;;;47.70;32.70;;;;;;;17.27;65.76;98622.54;105975;1276;113095;-65
2022/09/09 03:53:27;;;;;;;47.80;32.10;;;;;;;17.28;65.80;98621.56;106011;1277;99281;-63
2022/09/09 03:55:59;;;;;;;44.70;32.30;;;;;;;17.29;65.83;98620.73;104701;1277;1719165;-62
2022/09/09 03:58:28;;;;;;;44.40;30.70;;;;;;;17.30;65.86;98619.86;105964;1277;99109;-63
2022/09/09 04:00:59;;;;;;;45.70;31.10;;;;;;;17.31;65.69;98619.13;105875;1278;99203;-63
2022/09/09 04:03:28;;;;;;;46.10;32.10;;;;;;;17.32;65.72;98619.36;105966;1276;112747;-64
2022/09/09 04:05:59;;;;;;;45.20;31.50;;;;;;;17.32;66.07;98618.20;105927;1276;99256;-64
2022/09/09 04:08:30;;;;;;;43.70;30.90;;;;;;;17.33;65.96;98619.55;106062;1276;108640;-63
2022/09/09 04:11:01;;;;;;;44.80;31.20;;;;;;;17.33;66.04;98616.30;106011;1274;99247;-64
2022/09/09 04:13:29;;;;;;;45.60;30.70;;;;;;;17.33;66.04;98618.25;105930;1276;99260;-65
2022/09/09 04:15:59;;;;;;;45.60;32.10;;;;;;;17.34;66.12;98615.35;105972;1276;112704;-62
2022/09/09 04:18:28;;;;;;;45.30;31.40;;;;;;;17.34;66.03;98619.77;105881;1276;99234;-63
2022/09/09 04:20:57;;;;;;;44.00;30.40;;;;;;;17.34;66.30;98622.27;105971;1276;108357;-65
2022/09/09 04:23:29;;;;;;;44.70;30.90;;;;;;;17.34;66.28;98621.60;105752;1276;98340;-65
2022/09/09 04:25:58;;;;;;;44.40;30.60;;;;;;;17.34;66.26;98623.77;105819;1279;99300;-66
2022/09/09 04:28:30;;;;;;;43.70;29.70;;;;;;;17.34;66.30;98620.69;105754;1276;112964;-66
2022/09/09 04:31:17;;;;;;;44.50;30.90;;;;;;;17.33;66.41;98622.40;105821;1276;99304;-64
2022/09/09 04:33:46;;;;;;;42.60;31.60;;;;;;;17.32;66.38;98620.52;105894;1276;108440;-65
2022/09/09 04:36:14;;;;;;;41.90;30.10;;;;;;;17.32;66.42;98620.80;105958;1276;97744;-64
2022/09/09 04:38:44;;;;;;;44.40;30.20;;;;;;;17.32;66.37;98620.05;105791;1276;99221;-64
2022/09/09 04:41:12;;;;;;;42.60;29.30;;;;;;;17.32;66.45;98622.21;105874;1276;113849;-62
2022/09/09 04:43:40;;;;;;;43.50;29.20;;;;;;;17.31;66.62;98625.30;105964;1276;99240;-62
2022/09/09 04:46:09;;;;;;;39.40;28.40;;;;;;;17.31;66.56;98625.13;105693;1278;108661;-64
2022/09/09 04:48:37;;;;;;;42.10;29.60;;;;;;;17.31;66.48;98632.13;105759;1276;99256;-63
2022/09/09 04:51:07;;;;;;;41.20;29.60;;;;;;;17.31;66.74;98633.64;105725;1277;99421;-64
2022/09/09 04:53:35;;;;;;;42.40;29.70;;;;;;;17.31;66.65;98639.75;105773;1277;113417;-63
2022/09/09 04:56:06;;;;;;;41.70;29.10;;;;;;;17.30;66.73;98640.69;105990;1276;99233;-65
2022/09/09 04:58:35;;;;;;;45.60;29.40;;;;;;;17.29;66.52;98646.87;105885;1276;107847;-64
2022/09/09 05:01:24;;;;;;;40.30;28.90;;;;;;;17.29;66.73;98652.11;106056;1276;99251;-65
2022/09/09 05:03:53;;;;;;;43.20;29.00;;;;;;;17.28;66.79;98652.74;106034;1276;96685;-66
2022/09/09 05:06:25;;;;;;;39.10;28.50;;;;;;;17.27;66.79;98655.87;105892;1278;112926;-64
2022/09/09 05:08:53;;;;;;;40.60;29.00;;;;;;;17.26;66.80;98653.15;105978;1276;97656;-65
2022/09/09 05:11:25;;;;;;;44.30;30.40;;;;;;;17.26;66.83;98657.95;105848;1278;108396;-66
2022/09/09 05:13:54;;;;;;;43.20;30.90;;;;;;;17.26;66.77;98662.21;105907;1276;99224;-64
2022/09/09 05:16:26;;;;;;;40.20;28.00;;;;;;;17.27;66.97;98664.48;105832;1276;97803;-65
2022/09/09 05:18:54;;;;;;;45.10;29.10;;;;;;;17.26;66.88;98664.91;105911;1276;112321;-66
2022/09/09 05:21:27;;;;;;;41.60;29.10;;;;;;;17.26;67.01;98666.02;105882;1277;97673;-67
2022/09/09 05:23:55;;;;;;;40.70;27.30;;;;;;;17.25;67.12;98664.08;105961;1276;108369;-65
2022/09/09 05:26:24;;;;;;;42.50;29.20;;;;;;;17.26;67.06;98668.67;105923;1276;99205;-65
2022/09/09 05:28:56;;;;;;;43.10;28.50;;;;;;;17.27;66.99;98669.67;105944;1276;99307;-67
2022/09/09 05:31:28;;;;;;;41.80;29.60;;;;;;;17.27;67.18;98665.75;105842;1276;112757;-64
2022/09/09 05:33:58;;;;;;;43.90;29.70;;;;;;;17.26;67.17;98668.48;105865;1276;97677;-65
2022/09/09 05:36:27;;;;;;;40.40;28.60;;;;;;;17.27;67.16;98670.89;105747;1276;108362;-66
2022/09/09 05:38:56;;;;;;;40.40;27.60;;;;;;;17.28;67.10;98669.61;105958;1276;99299;-66
2022/09/09 05:41:24;;;;;;;38.70;27.60;;;;;;;17.28;67.29;98673.87;105941;1277;99372;-67
2022/09/09 05:43:52;;;;;;;39.20;28.60;;;;;;;17.28;67.27;98673.72;106012;1276;113429;-65
2022/09/09 05:46:24;;;;;;;45.80;29.30;;;;;;;17.29;67.50;98675.64;106019;1276;97436;-66
2022/09/09 05:48:54;;;;;;;38.70;29.50;;;;;;;17.29;67.27;98676.13;105927;1276;108415;-66
2022/09/09 05:51:26;;;;;;;39.50;27.90;;;;;;;17.29;67.44;98674.29;106019;1276;99320;-66
2022/09/09 05:54:00;;;;;;;37.80;27.70;;;;;;;17.30;67.55;98675.10;105988;1276;99217;-66
2022/09/09 05:56:32;;;;;;;35.10;26.20;;;;;;;17.30;67.49;98676.58;105960;1276;112645;-66
2022/09/09 05:59:02;;;;;;;34.50;25.70;;;;;;;17.31;67.45;98675.57;105938;1276;99530;-66
2022/09/09 06:01:36;;;;;;;36.90;26.20;;;;;;;17.32;67.45;98677.05;105855;1276;109830;-65
2022/09/09 06:04:04;;;;;;;34.60;25.50;;;;;;;17.35;67.68;98680.77;105981;1277;99230;-65
2022/09/09 06:06:39;;;;;;;34.30;25.40;;;;;;;17.39;67.67;98684.73;105972;1276;99211;-66
2022/09/09 06:09:10;;;;;;;37.10;26.10;;;;;;;17.42;67.74;98687.44;105961;1276;112552;-67
2022/09/09 06:11:42;;;;;;;32.40;23.70;;;;;;;17.44;67.81;98684.36;105936;1276;97967;-66
2022/09/09 06:14:10;;;;;;;32.60;23.60;;;;;;;17.45;67.84;98688.92;107193;1276;107749;-65
2022/09/09 06:16:39;;;;;;;30.40;20.10;;;;;;;17.47;67.99;98686.09;105924;1276;99256;-65
2022/09/09 06:19:07;;;;;;;28.90;21.10;;;;;;;17.48;67.93;98688.81;106097;1277;99306;-65
2022/09/09 06:21:40;;;;;;;28.40;20.50;;;;;;;17.51;67.67;98692.24;105950;1277;113320;-65
2022/09/09 06:24:13;;;;;;;29.60;20.50;;;;;;;17.52;67.86;98687.40;106024;1276;99212;-66
2022/09/09 06:26:45;;;;;;;46.50;19.20;;;;;;;17.53;68.07;98694.98;106017;1277;106358;-66
2022/09/09 06:29:13;;;;;;;27.50;18.90;;;;;;;17.55;68.17;98698.08;105919;1276;99243;-65
2022/09/09 06:31:41;;;;;;;27.70;19.10;;;;;;;17.57;68.36;98700.55;105987;1277;99210;-65
2022/09/09 06:34:12;;;;;;;27.40;18.70;;;;;;;17.60;68.03;98707.75;106007;1276;112834;-67
2022/09/09 06:36:45;;;;;;;27.00;18.80;;;;;;;17.60;68.19;98706.86;106034;1275;99196;-66
2022/09/09 06:39:17;;;;;;;26.90;17.30;;;;;;;17.58;68.37;98709.79;105965;1276;107896;-64
2022/09/09 06:41:49;;;;;;;26.70;17.30;;;;;;;17.58;68.13;98708.15;105919;1276;100352;-65
2022/09/09 06:44:20;;;;;;;26.40;17.50;;;;;;;17.58;68.45;98711.70;105987;1275;99313;-67
2022/09/09 06:46:48;;;;;;;24.30;15.70;;;;;;;17.59;68.28;98717.80;105918;1276;113456;-66
2022/09/09 06:49:18;;;;;;;24.70;16.00;;;;;;;17.57;68.18;98720.91;106010;1276;97040;-65
2022/09/09 06:51:49;;;;;;;22.90;14.40;;;;;;;17.57;68.51;98725.79;106004;1277;111003;-65
2022/09/09 06:54:22;;;;;;;23.80;14.50;;;;;;;17.58;68.45;98725.34;105921;1276;99207;-66
2022/09/09 06:56:53;;;;;;;23.50;14.30;;;;;;;17.56;68.53;98729.67;105991;1276;99220;-66
2022/09/09 06:59:22;;;;;;;21.30;12.80;;;;;;;17.55;68.46;98736.34;106022;1276;113410;-65
2022/09/09 07:01:54;;;;;;;22.40;15.00;;;;;;;17.55;68.33;98738.24;106011;1276;99343;-66
2022/09/09 07:04:25;;;;;;;21.10;13.20;;;;;;;17.55;68.28;98739.29;106024;1277;108372;-66
2022/09/09 07:06:55;;;;;;;20.80;13.00;;;;;;;17.53;68.49;98741.63;105926;1276;99235;-65
2022/09/09 07:09:25;;;;;;;21.90;12.90;;;;;;;17.54;68.54;98743.16;106006;1277;99125;-67
2022/09/09 07:11:55;;;;;;;23.00;13.20;;;;;;;17.55;68.34;98748.36;106019;1276;113565;-67
2022/09/09 07:14:29;;;;;;;19.80;12.70;;;;;;;17.56;68.65;98749.92;105921;1277;97775;-66
2022/09/09 07:16:57;;;;;;;23.00;13.70;;;;;;;17.58;68.39;98754.06;105900;1276;108416;-66
2022/09/09 07:19:29;;;;;;;20.60;12.70;;;;;;;17.60;68.84;98755.27;105946;1277;99250;-66
2022/09/09 07:21:57;;;;;;;22.00;13.30;;;;;;;17.62;68.61;98756.59;105965;1276;99294;-64
2022/09/09 07:24:29;;;;;;;20.60;12.80;;;;;;;17.68;68.72;98756.34;105942;1276;113384;-67
2022/09/09 07:27:00;;;;;;;20.20;10.70;;;;;;;17.72;68.86;98757.88;106027;1276;99262;-64
2022/09/09 07:29:29;;;;;;;21.00;13.10;;;;;;;17.77;68.64;98765.65;106015;1276;108504;-65
2022/09/09 07:32:00;;;;;;;20.30;13.00;;;;;;;17.89;68.71;98766.12;106003;1276;99237;-65
2022/09/09 07:34:28;;;;;;;21.10;11.80;;;;;;;18.06;68.50;98767.23;105931;1276;99340;-66
2022/09/09 07:36:57;;;;;;;23.10;12.80;;;;;;;18.19;68.31;98766.20;105938;1276;113418;-67
2022/09/09 07:39:28;;;;;;;21.90;11.90;;;;;;;18.30;68.50;98764.59;106016;1276;100708;-65
2022/09/09 07:41:59;;;;;;;22.80;13.10;;;;;;;18.45;68.77;98765.52;106024;1276;108295;-66
2022/09/09 07:44:28;;;;;;;19.50;11.30;;;;;;;18.63;68.78;98764.80;106045;1276;99238;-66
2022/09/09 07:46:59;;;;;;;19.10;10.30;;;;;;;18.85;68.73;98767.59;106035;1275;99198;-66
2022/09/09 07:49:29;;;;;;;16.70;9.70;;;;;;;19.01;68.48;98772.21;105998;1276;113308;-66
2022/09/09 07:52:03;;;;;;;17.50;9.60;;;;;;;19.21;68.35;98772.86;106081;1276;98365;-67
2022/09/09 07:54:33;;;;;;;17.30;9.30;;;;;;;19.36;68.39;98770.64;105991;1277;108316;-66
2022/09/09 07:57:04;;;;;;;21.70;8.80;;;;;;;19.96;67.70;98769.19;105939;1276;99333;-66
2022/09/09 07:59:33;;;;;;;12.30;7.70;;;;;;;20.49;67.79;98768.89;105950;1276;99323;-63
2022/09/09 08:02:09;;;;;;;13.60;7.10;;;;;;;21.27;67.21;98777.71;106032;1276;113650;-65
2022/09/09 08:04:37;;;;;;;16.50;7.90;;;;;;;22.09;66.85;98777.13;106034;1276;99306;-66
2022/09/09 08:07:07;;;;;;;13.00;6.10;;;;;;;22.43;67.49;98782.81;106021;1277;108509;-65
2022/09/09 08:09:34;;;;;;;14.30;7.60;;;;;;;22.52;67.55;98782.27;106039;1276;96716;-63
2022/09/09 08:12:03;;;;;;;14.40;7.30;;;;;;;22.37;67.86;98787.72;106025;1276;96721;-65
2022/09/09 08:14:32;;;;;;;12.40;7.10;;;;;;;22.35;67.62;98789.83;106040;1276;114010;-65
2022/09/09 08:17:00;;;;;;;11.80;6.70;;;;;;;22.34;67.66;98787.90;106042;1276;99324;-66
2022/09/09 08:19:35;;;;;;;11.50;6.80;;;;;;;22.21;67.50;98791.20;105905;1278;110092;-65
2022/09/09 08:22:03;;;;;;;15.10;7.10;;;;;;;22.08;67.34;98792.45;105866;1278;98414;-67
2022/09/09 08:24:33;;;;;;;11.80;6.90;;;;;;;21.86;67.44;98793.05;105923;1276;99238;-66
2022/09/09 08:27:03;;;;;;;11.30;6.40;;;;;;;21.63;67.34;98790.42;105965;1277;113246;-66
2022/09/09 08:29:31;;;;;;;15.10;7.20;;;;;;;21.45;67.63;98795.91;105894;1277;99522;-65
2022/09/09 08:32:02;;;;;;;13.60;7.10;;;;;;;21.34;67.77;98804.56;105846;1278;108258;-66
2022/09/09 08:34:31;;;;;;;14.70;6.70;;;;;;;21.23;67.31;98806.46;105912;1276;99349;-65
2022/09/09 08:37:02;;;;;;;12.50;6.40;;;;;;;21.15;67.03;98802.98;105946;1278;96584;-65
2022/09/09 08:39:32;;;;;;;10.80;6.70;;;;;;;21.35;66.74;98801.00;106071;1276;113752;-64
2022/09/09 08:42:16;;;;;;;11.30;6.60;;;;;;;21.55;66.69;98794.44;105989;1276;99316;-66
2022/09/09 08:45:12;;;;;;;9.90;6.00;;;;;;;21.82;66.59;98791.30;106045;1276;107763;-65
2022/09/09 08:47:58;;;;;;;13.00;6.40;;;;;;;21.90;66.77;98790.73;105935;1276;99351;-64
2022/09/09 08:50:38;;;;;;;10.20;5.80;;;;;;;22.18;66.23;98787.41;105989;1279;99254;-65
2022/09/09 08:53:41;;;;;;;9.90;5.40;;;;;;;22.56;66.18;98776.22;106041;1276;112732;-64
2022/09/09 08:56:21;;;;;;;10.90;5.50;;;;;;;22.92;65.91;98776.63;106008;1279;99055;-65
2022/09/09 08:58:54;;;;;;;9.50;5.50;;;;;;;23.27;65.78;98777.44;106005;1277;108406;-66
2022/09/09 09:01:30;;;;;;;10.70;5.80;;;;;;;23.69;65.91;98774.63;106063;1276;99922;-67
2022/09/09 09:03:58;;;;;;;11.30;5.80;;;;;;;23.65;66.00;98777.13;106012;1279;96741;-65
2022/09/09 09:06:58;;;;;;;7.90;4.60;;;;;;;23.57;66.06;98783.11;106012;1276;114519;-64
2022/09/09 09:09:35;;;;;;;8.50;5.20;;;;;;;23.50;65.70;98784.59;105967;1276;99067;-66
2022/09/09 09:12:16;;;;;;;11.60;5.50;;;;;;;23.42;65.53;98781.89;106089;1277;107915;-64
2022/09/09 09:14:49;;;;;;;8.90;5.10;;;;;;;23.40;65.59;98784.76;106058;1276;99304;-64
2022/09/09 09:17:25;;;;;;;7.80;4.70;;;;;;;23.80;65.15;98783.98;106089;1276;100477;-66
2022/09/09 09:19:56;;;;;;;17.00;9.40;;;;;;;23.91;65.12;98790.35;106004;1276;111281;-66
2022/09/09 09:22:52;;;;;;;11.80;7.00;;;;;;;23.97;64.88;98789.34;106035;1275;97919;-65
2022/09/09 09:25:41;;;;;;;7.50;4.80;;;;;;;24.38;64.70;98785.77;106032;1276;108399;-65
2022/09/09 09:28:27;;;;;;;8.70;5.30;;;;;;;24.43;64.75;98787.91;106014;1277;97530;-64
2022/09/09 09:31:13;;;;;;;10.80;5.40;;;;;;;24.44;64.85;98792.96;106099;1276;96660;-64
2022/09/09 09:33:55;;;;;;;9.50;5.20;;;;;;;24.35;64.37;98800.10;105999;1276;112675;-66
2022/09/09 09:36:38;;;;;;;8.90;4.50;;;;;;;24.21;64.15;98800.14;106057;1277;98031;-64
2022/09/09 09:39:05;;;;;;;7.50;3.90;;;;;;;24.45;63.97;98796.48;105967;1277;107788;-65
2022/09/09 09:41:57;;;;;;;6.40;3.60;;;;;;;24.75;63.17;98796.68;105920;1276;98399;-63
2022/09/09 09:44:30;;;;;;;7.00;4.10;;;;;;;25.12;63.36;98795.70;105937;1277;99340;-67
2022/09/09 09:47:14;;;;;;;6.50;3.70;;;;;;;25.29;63.24;98791.02;106014;1276;112768;-66
2022/09/09 09:49:55;;;;;;;7.90;4.00;;;;;;;25.19;63.00;98799.67;106138;1276;99395;-66
2022/09/09 09:52:29;;;;;;;5.60;3.80;;;;;;;25.14;62.84;98800.52;105977;1277;108393;-66
2022/09/09 09:55:02;;;;;;;4.90;3.90;;;;;;;24.99;62.88;98799.63;106007;1276;96659;-66
2022/09/09 09:57:41;;;;;;;7.00;4.20;;;;;;;25.06;62.88;98800.63;105899;1278;96683;-64
2022/09/09 10:00:18;;;;;;;7.20;4.50;;;;;;;25.02;62.38;98805.79;105932;1279;112794;-65
2022/09/09 10:02:52;;;;;;;8.70;4.50;;;;;;;24.96;62.25;98807.84;105986;1276;96704;-66
2022/09/09 10:05:28;;;;;;;7.60;4.10;;;;;;;24.99;62.25;98808.05;106073;1276;107728;-65
2022/09/09 10:08:16;;;;;;;8.60;4.50;;;;;;;24.90;61.93;98810.99;106067;1276;99273;-70
2022/09/09 10:11:20;;;;;;;7.60;4.30;;;;;;;24.75;61.78;98812.67;106060;1277;99449;-67
2022/09/09 10:14:22;;;;;;;6.90;4.40;;;;;;;24.53;61.58;98810.62;106011;1276;113402;-66
2022/09/09 10:17:09;;;;;;;5.70;4.30;;;;;;;24.40;61.30;98798.39;106015;1275;96931;-66
2022/09/09 10:19:58;;;;;;;8.10;4.50;;;;;;;24.18;60.88;98799.80;105922;1276;108461;-65
2022/09/09 10:22:35;;;;;;;8.90;4.20;;;;;;;24.00;60.82;98799.13;106012;1276;96620;-67
2022/09/09 10:25:17;;;;;;;5.20;4.00;;;;;;;23.91;60.88;98799.54;105982;1276;99252;-67
2022/09/09 10:28:32;;;;;;;8.10;4.40;;;;;;;23.88;60.71;98797.66;105983;1276;113342;-65
2022/09/09 10:31:28;;;;;;;7.10;4.30;;;;;;;23.79;60.57;98797.05;105422;1284;99437;-65
2022/09/09 10:34:06;;;;;;;7.10;4.30;;;;;;;23.70;60.49;98798.23;105397;1284;107755;-66
2022/09/09 10:36:46;;;;;;;6.00;4.20;;;;;;;23.64;60.12;98799.67;105867;1277;99314;-66
2022/09/09 10:39:16;;;;;;;7.30;4.40;;;;;;;23.57;60.16;98800.74;106052;1276;99320;-65
2022/09/09 10:41:59;;;;;;;8.50;4.60;;;;;;;23.51;60.16;98798.13;105952;1277;114607;-65
2022/09/09 10:44:55;;;;;;;6.90;4.10;;;;;;;23.42;59.92;98799.04;106026;1276;96551;-66
2022/09/09 10:48:01;;;;;;;9.00;5.20;;;;;;;23.27;59.60;98802.77;105894;1276;108398;-65
2022/09/09 10:50:55;;;;;;;10.00;5.80;;;;;;;23.14;59.67;98808.01;105997;1276;96548;-65
2022/09/09 10:53:53;;;;;;;7.00;5.00;;;;;;;23.01;59.42;98806.52;105898;1276;99238;-66
2022/09/09 10:56:26;;;;;;;9.00;5.10;;;;;;;22.94;59.47;98805.10;105863;1279;113464;-65
2022/09/09 10:59:26;;;;;;;6.60;4.60;;;;;;;22.88;59.28;98807.90;105984;1279;99320;-68
2022/09/09 11:02:09;;;;;;;11.20;4.80;;;;;;;22.78;59.17;98809.31;105892;1279;107762;-67
2022/09/09 11:04:40;;;;;;;10.40;4.70;;;;;;;22.71;59.32;98813.48;105974;1279;99268;-65
2022/09/09 11:07:28;;;;;;;18.80;10.70;;;;;;;22.62;59.24;98822.63;106062;1277;97944;-64
2022/09/09 11:10:06;;;;;;;9.70;5.80;;;;;;;22.55;59.35;98818.95;105930;1276;112857;-66
2022/09/09 11:12:40;;;;;;;10.30;5.20;;;;;;;22.47;58.72;98818.53;105902;1279;97877;-66
2022/09/09 11:15:33;;;;;;;9.50;5.20;;;;;;;22.40;59.09;98822.80;105884;1279;108435;-67
2022/09/09 11:18:14;;;;;;;8.40;5.10;;;;;;;22.38;58.99;98827.23;105896;1279;99231;-65
2022/09/09 11:20:48;;;;;;;9.40;4.80;;;;;;;22.35;58.91;98832.84;105985;1279;99334;-66
2022/09/09 11:23:30;;;;;;;8.20;4.90;;;;;;;22.33;58.84;98837.61;105885;1278;112812;-66
2022/09/09 11:26:07;;;;;;;7.90;5.10;;;;;;;22.30;58.88;98837.00;105946;1277;99344;-68
2022/09/09 11:29:18;;;;;;;8.70;5.10;;;;;;;22.28;58.84;98838.84;106026;1278;109001;-62
2022/09/09 11:32:01;;;;;;;8.60;4.70;;;;;;;22.24;58.57;98839.19;105926;1279;99339;-62
2022/09/09 11:35:02;;;;;;;9.20;4.50;;;;;;;22.23;58.62;98840.42;105875;1278;99365;-66
2022/09/09 11:37:48;;;;;;;9.90;4.90;;;;;;;22.22;58.50;98839.34;105834;1279;112957;-64
2022/09/09 11:40:34;;;;;;;7.00;4.50;;;;;;;22.18;58.63;98842.46;105962;1279;99311;-65
2022/09/09 11:43:21;;;;;;;10.90;5.00;;;;;;;22.19;58.41;98843.35;105986;1276;106916;-63
2022/09/09 11:45:59;;;;;;;8.60;4.80;;;;;;;22.21;58.60;98844.54;105962;1279;99324;-65
2022/09/09 11:48:36;;;;;;;5.70;4.40;;;;;;;22.20;58.70;98842.45;105977;1276;99205;-65
2022/09/09 11:51:18;;;;;;;7.90;4.70;;;;;;;22.20;58.53;98844.98;105885;1277;112782;-65